Terminal Aerodrome Forecast
Issued by NWS Mt. Holly, NJ

Home | Current Version | Previous Version | Text Only | Print | Product List | Glossary On
Versions: 1 2 3 4 5 6 7 8 9 10 11 12 13 14 15 16 17 18 19 20 21 22 23 24 25 26 27 28 29 30 31 32 33 34 35 36
000
FTUS41 KPHI 300534
TAFABE
TAF
KABE 300534Z 3006/3106 20005KT 5SM -SHRA BR SCT025 OVC035
      TEMPO 3006/3010 2SM +SHRA SCT010 OVC025
     FM301000 25003KT 2SM SHRA BR OVC010
     FM301300 25005KT 4SM -SHRA BR OVC015
     FM301600 22005KT P6SM VCSH OVC030
     FM301900 20006KT P6SM BKN250
     FM310200 VRB03KT 6SM BR SCT015 BKN250=

USA.gov is the U.S. government's official web portal to all federal, state and local government web resources and services.